createdAt,value
2022-11-16T00:00:18.150Z,99443.72
2022-11-16T00:05:24.200Z,99453.84
2022-11-16T00:10:28.880Z,99452.59
2022-11-16T00:15:30.564Z,99438.38
2022-11-16T00:20:32.175Z,99438.94
2022-11-16T00:25:33.841Z,99436.13
2022-11-16T00:30:35.507Z,99438.94
2022-11-16T00:35:40.337Z,99436.25
2022-11-16T00:40:41.958Z,99413.16
2022-11-16T00:45:44.211Z,99409.50
2022-11-16T00:50:46.209Z,99399.38
2022-11-16T00:55:48.902Z,99395.72
2022-11-16T01:00:52.948Z,99391.75
2022-11-16T01:06:03.601Z,99380.94
2022-11-16T01:11:24.756Z,99382.47
2022-11-16T01:16:26.420Z,99383.88
2022-11-16T01:21:28.035Z,99375.72
2022-11-16T01:26:29.750Z,99373.31
2022-11-16T01:31:31.428Z,99368.97
2022-11-16T01:36:36.809Z,99365.03
2022-11-16T01:41:40.624Z,99346.72
2022-11-16T01:46:42.447Z,99338.69
2022-11-16T01:51:51.761Z,99335.47
2022-11-16T01:56:56.070Z,99326.44
2022-11-16T02:02:08.909Z,99318.84
2022-11-16T02:07:19.768Z,99327.16
2022-11-16T02:12:42.171Z,99315.19
2022-11-16T02:17:56.884Z,99314.06
2022-11-16T02:23:07.737Z,99315.72
2022-11-16T02:28:57.234Z,99308.41
2022-11-16T02:33:59.507Z,99303.50
2022-11-16T02:39:05.196Z,99294.78
2022-11-16T02:44:13.259Z,99276.31
2022-11-16T02:49:18.566Z,99267.69
2022-11-16T02:54:21.809Z,99258.81
2022-11-16T02:59:30.570Z,99259.41
2022-11-16T03:04:37.556Z,99261.94
2022-11-16T03:09:41.872Z,99251.78
2022-11-16T03:14:59.532Z,99245.56
2022-11-16T03:20:05.511Z,99246.47
2022-11-16T03:25:12.182Z,99254.00
2022-11-16T03:30:21.126Z,99251.16
2022-11-16T03:35:38.244Z,99256.31
2022-11-16T03:40:41.245Z,99252.03
2022-11-16T03:45:43.435Z,99253.38
2022-11-16T03:50:45.957Z,99246.56
2022-11-16T03:55:50.066Z,99242.41
2022-11-16T04:00:53.251Z,99244.94
2022-11-16T04:06:13.858Z,99243.00
2022-11-16T04:11:36.020Z,99243.00
2022-11-16T04:16:56.470Z,99240.00
2022-11-16T04:22:32.484Z,99240.69
2022-11-16T04:27:52.646Z,99239.00
2022-11-16T04:33:13.177Z,99236.03
2022-11-16T04:38:14.989Z,99238.84
2022-11-16T04:43:17.838Z,99221.41
2022-11-16T04:48:20.722Z,99213.78
2022-11-16T04:53:27.927Z,99222.25
2022-11-16T04:58:47.878Z,99221.25
2022-11-16T05:03:50.566Z,99222.94
2022-11-16T05:08:53.029Z,99228.66
2022-11-16T05:13:54.916Z,99229.19
2022-11-16T05:19:15.448Z,99230.03
2022-11-16T05:24:35.472Z,99238.94
2022-11-16T05:29:39.012Z,99242.44
2022-11-16T05:34:40.833Z,99241.44
2022-11-16T05:39:42.865Z,99236.41
2022-11-16T05:44:45.068Z,99236.41
2022-11-16T05:49:47.018Z,99250.78
2022-11-16T05:54:49.291Z,99240.75
2022-11-16T05:59:51.353Z,99239.09
2022-11-16T06:04:53.308Z,99248.97
2022-11-16T06:09:56.022Z,99248.13
2022-11-16T06:14:57.837Z,99242.75
2022-11-16T06:19:59.781Z,99252.19
2022-11-16T06:25:01.931Z,99255.53
2022-11-16T06:30:04.732Z,99243.81
2022-11-16T06:35:08.982Z,99250.72
2022-11-16T06:40:12.231Z,99248.88
2022-11-16T06:45:17.570Z,99245.34
2022-11-16T06:50:25.393Z,99245.66
2022-11-16T06:55:28.953Z,99241.16
2022-11-16T07:00:30.791Z,99241.44
2022-11-16T07:05:33.276Z,99237.09
2022-11-16T07:10:36.104Z,99239.75
2022-11-16T07:15:38.628Z,99235.25
2022-11-16T07:20:40.713Z,99234.94
2022-11-16T07:25:46.728Z,99244.50
2022-11-16T07:30:54.688Z,99244.88
2022-11-16T07:36:03.931Z,99248.25
2022-11-16T07:41:10.792Z,99248.63
2022-11-16T07:51:45.661Z,99227.94
2022-11-16T07:57:04.466Z,99224.34
2022-11-16T08:02:06.487Z,99233.91
2022-11-16T08:07:08.670Z,99231.41
2022-11-16T08:12:17.201Z,99215.13
2022-11-16T08:17:19.259Z,99227.94
2022-11-16T08:22:21.199Z,99207.84
2022-11-16T08:27:23.916Z,99201.47
2022-11-16T08:32:29.764Z,99201.63
2022-11-16T08:37:34.759Z,99199.31
2022-11-16T08:42:43.258Z,99203.34
2022-11-16T08:47:46.039Z,99204.72
2022-11-16T08:52:48.106Z,99196.66
2022-11-16T08:57:50.037Z,99210.81
2022-11-16T09:02:53.525Z,99206.84
2022-11-16T09:07:55.153Z,99209.94
2022-11-16T09:12:56.883Z,99220.38
2022-11-16T09:17:58.573Z,99227.78
2022-11-16T09:23:00.210Z,99218.78
2022-11-16T09:28:01.840Z,99213.56
2022-11-16T09:33:03.588Z,99210.91
2022-11-16T09:38:06.007Z,99208.59
2022-11-16T09:43:13.667Z,99207.25
2022-11-16T09:48:16.994Z,99195.13
2022-11-16T09:53:38.634Z,99194.13
2022-11-16T09:59:00.243Z,99194.72
2022-11-16T10:04:11.765Z,99182.81
2022-11-16T10:09:13.548Z,99186.19
2022-11-16T10:14:33.862Z,99173.06
2022-11-16T10:19:46.718Z,99169.03
2022-11-16T10:24:58.259Z,99160.31
2022-11-16T10:30:16.538Z,99153.59
2022-11-16T10:35:26.116Z,99146.88
2022-11-16T10:40:30.572Z,99136.97
2022-11-16T10:45:39.854Z,99129.56
2022-11-16T10:50:45.161Z,99137.97
2022-11-16T10:55:59.596Z,99132.59
2022-11-16T11:01:01.309Z,99137.13
2022-11-16T11:06:03.189Z,99129.91
2022-11-16T11:11:24.749Z,99130.06
2022-11-16T11:16:27.418Z,99126.72
2022-11-16T11:21:29.128Z,99117.97
2022-11-16T11:26:39.066Z,99112.59
2022-11-16T11:31:55.516Z,99121.84
2022-11-16T11:37:01.081Z,99114.63
2022-11-16T11:42:14.507Z,99115.78
2022-11-16T11:47:57.266Z,99118.03
2022-11-16T11:53:08.256Z,99107.94
2022-11-16T11:58:16.999Z,99113.13
2022-11-16T12:03:49.372Z,99105.38
2022-11-16T12:08:59.867Z,99105.00
2022-11-16T12:14:20.116Z,99111.22
2022-11-16T12:19:24.407Z,99109.19
2022-11-16T12:24:53.000Z,99107.31
2022-11-16T12:30:08.031Z,99110.53
2022-11-16T12:35:48.771Z,99101.13
2022-11-16T12:41:06.403Z,99105.66
2022-11-16T12:46:29.341Z,99099.91
2022-11-16T12:51:37.334Z,99092.66
2022-11-16T12:56:48.869Z,99093.47
2022-11-16T13:02:21.319Z,99090.97
2022-11-16T13:07:48.636Z,99099.91
2022-11-16T13:13:09.112Z,99092.38
2022-11-16T13:18:17.680Z,99093.91
2022-11-16T13:23:31.789Z,99097.28
2022-11-16T13:29:14.791Z,99092.41
2022-11-16T13:34:29.085Z,99083.69
2022-11-16T13:39:58.745Z,99087.75
2022-11-16T13:45:18.538Z,99088.78
2022-11-16T13:50:23.145Z,99079.03
2022-11-16T13:55:30.544Z,99074.44
2022-11-16T14:00:59.862Z,99082.34
2022-11-16T14:06:01.580Z,99078.50
2022-11-16T14:11:03.631Z,99073.63
2022-11-16T14:16:20.448Z,99076.16
2022-11-16T14:21:48.850Z,99065.41
2022-11-16T14:27:18.663Z,99075.66
2022-11-16T14:32:43.503Z,99070.94
2022-11-16T14:37:45.139Z,99067.09
2022-11-16T14:43:20.211Z,99064.91
2022-11-16T14:48:22.863Z,99060.84
2022-11-16T14:53:25.190Z,99055.13
2022-11-16T14:58:26.793Z,99059.31
2022-11-16T15:03:31.560Z,99065.88
2022-11-16T15:08:44.640Z,99054.78
2022-11-16T15:13:47.402Z,99059.13
2022-11-16T15:18:59.998Z,99049.03
2022-11-16T15:24:28.907Z,99053.53
2022-11-16T15:29:24.433Z,99052.16
2022-11-16T15:34:26.150Z,99053.28
2022-11-16T15:39:32.267Z,99048.91
2022-11-16T15:44:34.003Z,99046.72
2022-11-16T15:49:37.830Z,99048.03
2022-11-16T15:54:58.161Z,99048.00
2022-11-16T15:59:59.866Z,99042.56
2022-11-16T16:05:01.466Z,99050.56
2022-11-16T16:10:13.944Z,99047.06
2022-11-16T16:15:25.611Z,99050.75
2022-11-16T16:20:31.439Z,99047.38
2022-11-16T16:25:34.508Z,99037.66
2022-11-16T16:30:36.152Z,99042.34
2022-11-16T16:35:37.768Z,99044.00
2022-11-16T16:40:39.438Z,99039.81
2022-11-16T16:45:43.528Z,99037.97
2022-11-16T16:50:45.250Z,99050.69
2022-11-16T16:55:50.031Z,99046.19
2022-11-16T17:00:55.687Z,99045.34
2022-11-16T17:06:01.893Z,99046.34
2022-11-16T17:11:04.270Z,99046.50
2022-11-16T17:16:06.178Z,99042.28
2022-11-16T17:21:09.307Z,99044.28
2022-11-16T17:26:10.965Z,99043.78
2022-11-16T17:31:12.824Z,99050.97
2022-11-16T17:36:14.445Z,99035.19
2022-11-16T17:41:18.303Z,99040.56
2022-11-16T17:46:21.750Z,99036.72
2022-11-16T17:51:24.874Z,99044.78
2022-11-16T17:56:27.668Z,99036.72
2022-11-16T18:01:29.659Z,99047.44
2022-11-16T18:06:32.444Z,99045.44
2022-11-16T18:11:34.089Z,99040.94
2022-11-16T18:16:36.176Z,99052.16
2022-11-16T18:21:41.605Z,99048.66
2022-11-16T18:26:43.303Z,99053.16
2022-11-16T18:31:44.975Z,99053.13
2022-11-16T18:36:48.894Z,99050.25
2022-11-16T18:41:55.004Z,99043.69
2022-11-16T18:46:57.116Z,99040.91
2022-11-16T18:51:58.733Z,99043.22
2022-11-16T18:57:00.401Z,99041.00
2022-11-16T19:02:02.084Z,99042.47
2022-11-16T19:07:03.732Z,99026.88
2022-11-16T19:12:06.269Z,99036.06
2022-11-16T19:17:08.034Z,99045.41
2022-11-16T19:22:09.647Z,99037.81
2022-11-16T19:27:12.274Z,99042.78
2022-11-16T19:32:14.020Z,99038.91
2022-11-16T19:37:15.699Z,99042.00
2022-11-16T19:42:17.327Z,99045.00
2022-11-16T19:47:19.043Z,99036.06
2022-11-16T19:52:20.683Z,99039.34
2022-11-16T19:57:22.338Z,99040.34
2022-11-16T20:02:24.025Z,99037.28
2022-11-16T20:07:25.688Z,99036.91
2022-11-16T20:12:27.348Z,99032.84
2022-11-16T20:17:28.959Z,99034.00
2022-11-16T20:22:30.603Z,99038.81
2022-11-16T20:27:32.221Z,99037.13
2022-11-16T20:32:33.887Z,99030.94
2022-11-16T20:37:36.945Z,99027.56
2022-11-16T20:42:38.553Z,99031.25
2022-11-16T20:47:40.141Z,99028.72
2022-11-16T20:52:43.691Z,99041.25
2022-11-16T20:57:47.701Z,99034.22
2022-11-16T21:02:49.587Z,99037.91
2022-11-16T21:07:51.180Z,99032.69
2022-11-16T21:13:11.101Z,99038.88
2022-11-16T21:18:12.741Z,99037.22
2022-11-16T21:23:14.379Z,99030.16
2022-11-16T21:28:20.175Z,99034.69
2022-11-16T21:33:26.129Z,99046.75
2022-11-16T21:38:27.748Z,99049.03
2022-11-16T21:43:29.359Z,99052.00
2022-11-16T21:48:33.172Z,99052.28
2022-11-16T21:53:35.605Z,99050.47
2022-11-16T21:58:39.094Z,99052.59
2022-11-16T22:03:40.834Z,99048.94
2022-11-16T22:08:42.987Z,99042.91
2022-11-16T22:13:44.664Z,99053.75
2022-11-16T22:18:46.352Z,99054.19
2022-11-16T22:23:47.963Z,99048.31
2022-11-16T22:28:49.833Z,99055.50
2022-11-16T22:33:53.550Z,99060.97
2022-11-16T22:38:57.127Z,99051.13
2022-11-16T22:43:58.902Z,99057.47
2022-11-16T22:49:00.803Z,99049.44
2022-11-16T22:54:04.369Z,99043.41
2022-11-16T22:59:06.297Z,99047.06
2022-11-16T23:04:08.190Z,99049.06
2022-11-16T23:09:09.832Z,99041.03
2022-11-16T23:14:33.028Z,99049.91
2022-11-16T23:19:53.304Z,99035.84
2022-11-16T23:25:13.479Z,99030.94
2022-11-16T23:30:15.121Z,99029.09
2022-11-16T23:35:17.017Z,99032.22
2022-11-16T23:40:18.667Z,99023.97
2022-11-16T23:45:20.488Z,99029.47
2022-11-16T23:50:22.144Z,99027.91
2022-11-16T23:55:23.926Z,99025.97
